Time;durP1;ratioP1;P1;durP2;ratioP2;P2;SDS_P1;SDS_P2;PMS_P1;PMS_P2;Temp;Humidity;BMP_temperature;BMP_pressure;BME280_temperature;BME280_humidity;BME280_pressure;Samples;Min_cycle;Max_cycle;Signal;HPM_P1;HPM_P2
2021/10/08 00:02:22;;;;;;;15.25;9.63;;;;;;;-139.48;100.00;61774.03;4975300;28;20053;-70
2021/10/08 00:05:06;;;;;;;12.85;9.35;;;;;;;-139.48;100.00;61774.03;4973910;28;20081;-70
2021/10/08 00:07:50;;;;;;;14.18;9.57;;;;;;;-139.48;100.00;61774.03;4975111;28;20463;-70
2021/10/08 00:10:34;;;;;;;14.02;9.68;;;;;;;-139.48;100.00;61774.03;4961690;28;20093;-70
2021/10/08 00:13:18;;;;;;;13.30;9.70;;;;;;;-139.48;100.00;61774.03;4974912;28;20106;-70
2021/10/08 00:16:02;;;;;;;15.43;9.85;;;;;;;-139.48;100.00;61774.03;4976234;28;20046;-70
2021/10/08 00:18:46;;;;;;;14.85;10.15;;;;;;;-139.48;100.00;61774.03;4974713;28;20108;-70
2021/10/08 00:21:30;;;;;;;17.67;10.30;;;;;;;-139.48;100.00;61774.03;4974653;28;20104;-70
2021/10/08 00:24:14;;;;;;;15.75;10.23;;;;;;;-139.48;100.00;61774.03;4974358;28;20519;-70
2021/10/08 00:26:58;;;;;;;16.73;10.13;;;;;;;-139.48;100.00;61774.03;4975789;28;20070;-70
2021/10/08 00:29:42;;;;;;;13.18;9.88;;;;;;;-139.48;100.00;61774.03;4961146;28;20046;-69
2021/10/08 00:32:26;;;;;;;16.40;9.23;;;;;;;-139.48;100.00;61774.03;4974455;28;20053;-69
2021/10/08 00:35:10;;;;;;;14.57;10.35;;;;;;;-139.48;100.00;61774.03;4974357;28;20502;-70
2021/10/08 00:37:54;;;;;;;12.35;9.50;;;;;;;-139.48;100.00;61774.03;4974856;28;20515;-70
2021/10/08 00:40:42;;;;;;;13.70;9.50;;;;;;;-139.48;100.00;61774.03;4974403;28;20133;-70
2021/10/08 00:43:26;;;;;;;12.93;10.13;;;;;;;-139.48;100.00;61774.03;4974155;28;20061;-70
2021/10/08 00:46:10;;;;;;;14.07;9.52;;;;;;;-139.48;100.00;61774.03;4974685;28;20045;-70
2021/10/08 00:48:54;;;;;;;15.20;9.25;;;;;;;-139.48;100.00;61774.03;4974408;28;20049;-70
2021/10/08 00:51:38;;;;;;;16.73;10.80;;;;;;;-139.48;100.00;61774.03;4974089;28;20050;-70
2021/10/08 00:54:22;;;;;;;15.50;10.35;;;;;;;-139.48;100.00;61774.03;4974192;28;20086;-70
2021/10/08 00:57:06;;;;;;;13.90;9.75;;;;;;;-139.48;100.00;61774.03;4974290;28;20545;-70
2021/10/08 00:59:50;;;;;;;16.75;10.07;;;;;;;-139.48;100.00;61774.03;4973912;28;20069;-69
2021/10/08 01:02:34;;;;;;;15.30;10.63;;;;;;;-139.48;100.00;61774.03;4974162;28;20050;-70
2021/10/08 01:05:19;;;;;;;14.57;10.85;;;;;;;-139.48;100.00;61774.03;4974190;28;20050;-70
2021/10/08 01:08:04;;;;;;;14.13;10.25;;;;;;;-139.48;100.00;61774.03;4974238;28;20100;-70
2021/10/08 01:10:48;;;;;;;15.88;10.30;;;;;;;-139.48;100.00;61774.03;4974103;28;20459;-70
2021/10/08 01:13:32;;;;;;;16.40;10.82;;;;;;;-139.48;100.00;61774.03;4974879;28;20053;-70
2021/10/08 01:16:23;;;;;;;16.15;10.68;;;;;;;-139.48;100.00;61774.03;4959786;28;20061;-70
2021/10/08 01:19:06;;;;;;;17.02;10.85;;;;;;;-139.48;100.00;61774.03;4973676;28;20113;-70
2021/10/08 01:21:53;;;;;;;14.98;10.65;;;;;;;-139.48;100.00;61774.03;4974010;28;20185;-69
2021/10/08 01:24:37;;;;;;;16.70;10.88;;;;;;;-139.48;100.00;61774.03;4973343;28;20050;-70
2021/10/08 01:27:22;;;;;;;14.40;10.68;;;;;;;-139.48;100.00;61774.03;4973559;28;20053;-70
2021/10/08 01:30:07;;;;;;;19.52;10.98;;;;;;;-139.48;100.00;61774.03;4973815;28;20097;-70
2021/10/08 01:32:52;;;;;;;17.25;10.88;;;;;;;-139.48;100.00;61774.03;4973673;28;20475;-70
2021/10/08 01:35:36;;;;;;;16.75;11.07;;;;;;;-139.48;100.00;61774.03;4973494;28;20558;-70
2021/10/08 01:38:20;;;;;;;17.65;11.63;;;;;;;-139.48;100.00;61774.03;4973703;28;20101;-69
2021/10/08 01:41:04;;;;;;;15.38;10.30;;;;;;;-139.48;100.00;61774.03;4974681;28;20049;-70
2021/10/08 01:43:49;;;;;;;18.17;11.43;;;;;;;-139.48;100.00;61774.03;4973538;28;20073;-69
2021/10/08 01:46:34;;;;;;;20.08;11.75;;;;;;;-139.48;100.00;61774.03;4959997;28;20053;-70
2021/10/08 01:49:18;;;;;;;20.75;11.57;;;;;;;-139.48;100.00;61774.03;4973631;28;20518;-70
2021/10/08 01:52:04;;;;;;;17.90;10.70;;;;;;;-139.48;100.00;61774.03;4974422;28;20049;-70
2021/10/08 01:54:48;;;;;;;15.68;11.15;;;;;;;-139.48;100.00;61774.03;4973161;28;20054;-70
2021/10/08 01:57:32;;;;;;;16.48;11.13;;;;;;;-139.48;100.00;61774.03;4973535;28;20109;-69
2021/10/08 02:00:16;;;;;;;16.02;10.25;;;;;;;-139.48;100.00;61774.03;4973507;28;20190;-70
2021/10/08 02:03:01;;;;;;;14.70;10.50;;;;;;;-139.48;100.00;61774.03;4974181;28;20531;-70
2021/10/08 02:05:44;;;;;;;17.23;10.68;;;;;;;-139.48;100.00;61774.03;4973219;28;20093;-70
2021/10/08 02:08:28;;;;;;;16.67;11.80;;;;;;;-139.48;100.00;61774.03;4959789;28;20081;-70
2021/10/08 02:11:12;;;;;;;13.20;10.23;;;;;;;-139.48;100.00;61774.03;4973296;28;20522;-70
2021/10/08 02:13:57;;;;;;;17.33;11.05;;;;;;;-139.48;100.00;61774.03;4973097;28;20054;-70
2021/10/08 02:16:41;;;;;;;19.45;12.10;;;;;;;-139.48;100.00;61774.03;4973348;28;20094;-70
2021/10/08 02:19:25;;;;;;;19.70;11.63;;;;;;;-139.48;100.00;61774.03;4973125;28;20555;-70
2021/10/08 02:22:09;;;;;;;18.13;11.25;;;;;;;-139.48;100.00;61774.03;4973334;28;20093;-70
2021/10/08 02:24:53;;;;;;;18.02;11.93;;;;;;;-139.48;100.00;61774.03;4959723;28;20531;-68
2021/10/08 02:27:37;;;;;;;17.73;12.35;;;;;;;-139.48;100.00;61774.03;4973868;28;20049;-70
2021/10/08 02:30:20;;;;;;;21.80;12.85;;;;;;;-139.48;100.00;61774.03;4977975;28;20046;-70
2021/10/08 02:33:05;;;;;;;23.38;13.60;;;;;;;-139.48;100.00;61774.03;4976612;28;20093;-70
2021/10/08 02:35:50;;;;;;;22.33;11.82;;;;;;;-139.48;100.00;61774.03;4963045;28;20503;-69
2021/10/08 02:38:35;;;;;;;20.23;12.25;;;;;;;-139.48;100.00;61774.03;4963287;28;20174;-71
2021/10/08 02:41:19;;;;;;;20.02;12.07;;;;;;;-139.48;100.00;61774.03;4963099;28;20109;-70
2021/10/08 02:44:04;;;;;;;19.60;13.05;;;;;;;-139.48;100.00;61774.03;4976406;28;20428;-70
2021/10/08 02:46:48;;;;;;;18.05;12.15;;;;;;;-139.48;100.00;61774.03;4976370;28;20070;-70
2021/10/08 02:49:32;;;;;;;22.45;13.15;;;;;;;-139.48;100.00;61774.03;4976621;28;20511;-69
2021/10/08 02:52:16;;;;;;;24.30;13.82;;;;;;;-139.48;100.00;61774.03;4962865;28;20088;-70
2021/10/08 02:55:00;;;;;;;18.60;13.43;;;;;;;-139.48;100.00;61774.03;4962420;28;20074;-70
2021/10/08 02:57:44;;;;;;;22.15;13.23;;;;;;;-139.48;100.00;61774.03;4976781;28;20109;-70
2021/10/08 03:00:28;;;;;;;19.70;12.85;;;;;;;-139.48;100.00;61774.03;4976476;28;20050;-69
2021/10/08 03:03:11;;;;;;;22.92;12.07;;;;;;;-139.48;100.00;61774.03;4977114;28;20447;-69
2021/10/08 03:05:55;;;;;;;16.98;11.80;;;;;;;-139.48;100.00;61774.03;4976400;28;20467;-70
2021/10/08 03:08:39;;;;;;;19.38;12.43;;;;;;;-139.48;100.00;61774.03;4962591;28;20123;-69
2021/10/08 03:11:24;;;;;;;19.15;12.40;;;;;;;-139.48;100.00;61774.03;4975984;28;20503;-70
2021/10/08 03:14:08;;;;;;;29.02;12.52;;;;;;;-139.48;100.00;61774.03;4975787;28;20125;-70
2021/10/08 03:16:52;;;;;;;19.30;11.45;;;;;;;-139.48;100.00;61774.03;4962471;28;20519;-70
2021/10/08 03:19:36;;;;;;;19.75;11.90;;;;;;;-139.48;100.00;61774.03;4962382;28;20407;-69
2021/10/08 03:22:20;;;;;;;19.45;12.27;;;;;;;-139.48;100.00;61774.03;4976054;28;20499;-69
2021/10/08 03:25:07;;;;;;;19.95;14.07;;;;;;;-139.48;100.00;61774.03;4977533;28;20518;-70
2021/10/08 03:27:51;;;;;;;18.05;12.75;;;;;;;-139.48;100.00;61774.03;4975959;28;20108;-69
2021/10/08 03:30:35;;;;;;;19.73;13.18;;;;;;;-139.48;100.00;61774.03;4975872;28;20042;-70
2021/10/08 03:33:19;;;;;;;16.65;11.43;;;;;;;-139.48;100.00;61774.03;4961856;28;20053;-70
2021/10/08 03:36:04;;;;;;;18.73;12.50;;;;;;;-139.48;100.00;61774.03;4975786;28;20065;-68
2021/10/08 03:38:47;;;;;;;19.70;12.10;;;;;;;-139.48;100.00;61774.03;4975513;28;20085;-70
2021/10/08 03:41:32;;;;;;;;;;;;;;;-139.48;100.00;61774.03;4976285;28;20435;-70
2021/10/08 03:44:16;;;;;;;19.15;12.13;;;;;;;-139.48;100.00;61774.03;4975658;28;19920;-70
2021/10/08 03:47:01;;;;;;;17.92;11.77;;;;;;;-139.48;100.00;61774.03;4975403;28;20069;-70
2021/10/08 03:49:45;;;;;;;20.20;11.98;;;;;;;-139.48;100.00;61774.03;4961623;28;20096;-69
2021/10/08 03:52:29;;;;;;;21.35;13.07;;;;;;;-139.48;100.00;61774.03;4975471;28;20415;-69
2021/10/08 03:55:13;;;;;;;17.40;11.73;;;;;;;-139.48;100.00;61774.03;4975333;28;20070;-70
2021/10/08 03:57:57;;;;;;;;;;;;;;;-139.48;100.00;61774.03;4975824;28;20415;-70
2021/10/08 04:00:41;;;;;;;20.67;13.10;;;;;;;-139.48;100.00;61774.03;4975397;28;19925;-70
2021/10/08 04:03:26;;;;;;;18.83;12.45;;;;;;;-139.48;100.00;61774.03;4975631;28;20144;-69
2021/10/08 04:06:11;;;;;;;20.92;13.27;;;;;;;-139.48;100.00;61774.03;4976043;28;20050;-69
2021/10/08 04:08:55;;;;;;;18.08;12.60;;;;;;;-139.48;100.00;61774.03;4974913;28;20519;-70
2021/10/08 04:11:39;;;;;;;18.08;12.63;;;;;;;-139.48;100.00;61774.03;4974883;28;20515;-70
2021/10/08 04:14:23;;;;;;;17.02;11.95;;;;;;;-139.48;100.00;61774.03;4975748;28;20061;-70
2021/10/08 04:17:07;;;;;;;20.77;13.02;;;;;;;-139.48;100.00;61774.03;4976229;28;20053;-70
2021/10/08 04:19:51;;;;;;;18.17;12.38;;;;;;;-139.48;100.00;61774.03;4974721;28;20097;-70
2021/10/08 04:22:35;;;;;;;24.00;13.57;;;;;;;-139.48;100.00;61774.03;4961021;28;20054;-69
2021/10/08 04:25:19;;;;;;;18.77;12.77;;;;;;;-139.48;100.00;61774.03;4975142;28;20049;-70
2021/10/08 04:28:03;;;;;;;24.23;13.73;;;;;;;-139.48;100.00;61774.03;4960923;28;20113;-70
2021/10/08 04:30:47;;;;;;;19.42;12.68;;;;;;;-139.48;100.00;61774.03;4974531;28;20117;-70
2021/10/08 04:33:31;;;;;;;20.65;12.95;;;;;;;-139.48;100.00;61774.03;4960908;28;20057;-70
2021/10/08 04:36:15;;;;;;;21.10;13.02;;;;;;;-139.48;100.00;61774.03;4974709;28;20042;-70
2021/10/08 04:38:59;;;;;;;24.85;12.73;;;;;;;-139.48;100.00;61774.03;4975320;28;20148;-69
2021/10/08 04:41:42;;;;;;;19.77;12.98;;;;;;;-139.48;100.00;61774.03;4974607;28;20412;-70
2021/10/08 04:44:26;;;;;;;19.48;12.35;;;;;;;-139.48;100.00;61774.03;4974299;28;20049;-70
2021/10/08 04:47:12;;;;;;;19.98;12.98;;;;;;;-139.48;100.00;61774.03;4974229;28;20101;-70
2021/10/08 04:49:56;;;;;;;20.98;12.90;;;;;;;-139.48;100.00;61774.03;4974008;28;20053;-70
2021/10/08 04:52:40;;;;;;;23.92;13.65;;;;;;;-139.48;100.00;61774.03;4974270;28;20501;-70
2021/10/08 04:55:24;;;;;;;19.92;12.73;;;;;;;-139.48;100.00;61774.03;4974063;28;20133;-70
2021/10/08 04:58:08;;;;;;;21.50;13.30;;;;;;;-139.48;100.00;61774.03;4960421;28;20181;-69
2021/10/08 05:00:52;;;;;;;20.00;12.32;;;;;;;-139.48;100.00;61774.03;4974249;28;20515;-69
2021/10/08 05:03:36;;;;;;;20.35;12.35;;;;;;;-139.48;100.00;61774.03;4974133;28;20416;-69
2021/10/08 05:06:20;;;;;;;24.13;14.20;;;;;;;-139.48;100.00;61774.03;4973957;28;20423;-70
2021/10/08 05:09:04;;;;;;;18.30;12.63;;;;;;;-139.48;100.00;61774.03;4973863;28;20559;-69
2021/10/08 05:11:47;;;;;;;21.63;12.50;;;;;;;-139.48;100.00;61774.03;4975069;28;20049;-70
2021/10/08 05:14:31;;;;;;;19.92;13.00;;;;;;;-139.48;100.00;61774.03;4973849;28;20058;-70
2021/10/08 05:17:15;;;;;;;19.70;12.68;;;;;;;-139.48;100.00;61774.03;4974003;28;20053;-70
2021/10/08 05:19:59;;;;;;;24.15;13.05;;;;;;;-139.48;100.00;61774.03;4974923;28;20176;-70
2021/10/08 05:22:43;;;;;;;23.13;12.73;;;;;;;-139.48;100.00;61774.03;4973519;28;20618;-70
2021/10/08 05:25:27;;;;;;;21.80;13.15;;;;;;;-139.48;100.00;61774.03;4960261;28;20130;-70
2021/10/08 05:28:11;;;;;;;20.65;12.90;;;;;;;-139.48;100.00;61774.03;4974836;28;20126;-69
2021/10/08 05:30:55;;;;;;;22.98;13.35;;;;;;;-139.48;100.00;61774.03;4974081;28;20053;-70
2021/10/08 05:33:39;;;;;;;26.17;12.98;;;;;;;-139.48;100.00;61774.03;4974516;28;20463;-70
2021/10/08 05:36:23;;;;;;;23.60;12.75;;;;;;;-139.48;100.00;61774.03;4960141;28;20416;-70
2021/10/08 05:39:07;;;;;;;21.08;12.85;;;;;;;-139.48;100.00;61774.03;4974708;28;20427;-69
2021/10/08 05:41:50;;;;;;;22.45;14.48;;;;;;;-139.48;100.00;61774.03;4959949;28;20528;-69
2021/10/08 05:44:35;;;;;;;21.13;12.50;;;;;;;-139.48;100.00;61774.03;4974304;28;20050;-70
2021/10/08 05:47:18;;;;;;;24.17;14.05;;;;;;;-139.48;100.00;61774.03;4973849;28;20054;-69
2021/10/08 05:50:04;;;;;;;23.63;14.25;;;;;;;-139.48;100.00;61774.03;4973643;28;20523;-70
2021/10/08 05:52:48;;;;;;;19.45;12.80;;;;;;;-139.48;100.00;61774.03;4959561;28;20053;-70
2021/10/08 05:55:32;;;;;;;21.35;13.85;;;;;;;-139.48;100.00;61774.03;4973218;28;20050;-69
2021/10/08 05:58:16;;;;;;;22.90;13.68;;;;;;;-139.48;100.00;61774.03;4959920;28;20054;-70
2021/10/08 06:00:59;;;;;;;25.52;13.65;;;;;;;-139.48;100.00;61774.03;4973437;28;20054;-70
2021/10/08 06:03:43;;;;;;;23.23;13.93;;;;;;;-139.48;100.00;61774.03;4963769;28;20427;-69
2021/10/08 06:06:27;;;;;;;23.52;13.55;;;;;;;-139.48;100.00;61774.03;4978670;28;20074;-70
2021/10/08 06:09:11;;;;;;;;;;;;;;;-139.48;100.00;61774.03;4977515;28;20054;-70
2021/10/08 06:11:55;;;;;;;22.77;13.43;;;;;;;-139.48;100.00;61774.03;4977114;28;20441;-70
2021/10/08 06:14:40;;;;;;;;;;;;;;;-139.48;100.00;61774.03;4977558;28;20050;-70
2021/10/08 06:17:23;;;;;;;19.60;13.25;;;;;;;-139.48;100.00;61774.03;4977140;28;20042;-70
2021/10/08 06:20:08;;;;;;;22.15;13.60;;;;;;;-139.48;100.00;61774.03;4977145;28;20129;-70
2021/10/08 06:22:53;;;;;;;20.10;13.00;;;;;;;-139.48;100.00;61774.03;4977537;28;20054;-70
2021/10/08 06:25:37;;;;;;;21.27;13.55;;;;;;;-139.48;100.00;61774.03;4977326;28;20101;-70
2021/10/08 06:28:21;;;;;;;19.17;12.48;;;;;;;-139.48;100.00;61774.03;4963356;28;20112;-68
2021/10/08 06:31:05;;;;;;;21.52;13.15;;;;;;;-139.48;100.00;61774.03;4977939;28;20054;-70
2021/10/08 06:33:49;;;;;;;21.08;13.93;;;;;;;-139.48;100.00;61774.03;4976746;28;20114;-70
2021/10/08 06:36:33;;;;;;;17.27;12.45;;;;;;;-139.48;100.00;61774.03;4977725;28;20514;-70
2021/10/08 06:39:17;;;;;;;19.50;12.35;;;;;;;-139.48;100.00;61774.03;4977575;28;20061;-69
2021/10/08 06:42:01;;;;;;;21.73;11.98;;;;;;;-139.48;100.00;61774.03;4976819;28;20566;-70
2021/10/08 06:44:45;;;;;;;16.10;11.45;;;;;;;-139.48;100.00;61774.03;4977570;28;20145;-70
2021/10/08 06:47:29;;;;;;;17.17;11.75;;;;;;;-139.48;100.00;61774.03;4976892;28;20528;-70
2021/10/08 06:50:13;;;;;;;19.85;11.70;;;;;;;-139.48;100.00;61774.03;4976732;28;20085;-69
2021/10/08 06:52:57;;;;;;;;;;;;;;;-139.48;100.00;61774.03;4963058;28;20182;-70
2021/10/08 06:55:41;;;;;;;20.98;11.35;;;;;;;-139.48;100.00;61774.03;4976482;28;20400;-70
2021/10/08 06:58:25;;;;;;;13.90;11.02;;;;;;;-139.48;100.00;61774.03;4976490;28;20053;-70
2021/10/08 07:01:09;;;;;;;19.52;11.57;;;;;;;-139.48;100.00;61774.03;4977100;28;20094;-70
2021/10/08 07:03:53;;;;;;;17.23;10.68;;;;;;;-139.48;100.00;61774.03;4976486;28;20069;-70
2021/10/08 07:06:37;;;;;;;14.13;10.55;;;;;;;-139.48;100.00;61774.03;4976287;28;20061;-70
2021/10/08 07:09:21;;;;;;;13.85;10.20;;;;;;;-139.48;100.00;61774.03;4976327;28;20050;-70
2021/10/08 07:12:05;;;;;;;17.48;10.60;;;;;;;-139.48;100.00;61774.03;4962551;28;20050;-70
2021/10/08 07:14:49;;;;;;;14.13;10.07;;;;;;;-139.48;100.00;61774.03;4975459;28;20077;-70
2021/10/08 07:17:38;;;;;;;15.63;10.52;;;;;;;-139.48;100.00;61774.03;4962520;28;20117;-70
2021/10/08 07:20:24;;;;;;;15.90;10.77;;;;;;;-139.48;100.00;61774.03;4976170;28;20415;-70
2021/10/08 07:23:08;;;;;;;17.00;10.57;;;;;;;-139.48;100.00;61774.03;4976770;28;20101;-68
2021/10/08 07:25:52;;;;;;;14.80;10.45;;;;;;;-139.48;100.00;61774.03;4976941;28;20442;-70
2021/10/08 07:28:38;;;;;;;12.63;10.10;;;;;;;-139.48;100.00;61774.03;4962135;28;20049;-70
2021/10/08 07:31:22;;;;;;;15.50;10.43;;;;;;;-139.48;100.00;61774.03;4962263;28;20089;-71
2021/10/08 07:34:06;;;;;;;14.05;10.90;;;;;;;-139.48;100.00;61774.03;4975368;28;20507;-68
2021/10/08 07:36:50;;;;;;;16.63;11.48;;;;;;;-139.48;100.00;61774.03;4975194;28;20058;-70
2021/10/08 07:39:33;;;;;;;15.02;10.63;;;;;;;-139.48;100.00;61774.03;4974924;28;20558;-70
2021/10/08 07:42:17;;;;;;;14.38;10.85;;;;;;;-139.48;100.00;61774.03;4975286;28;20056;-70
2021/10/08 07:45:06;;;;;;;15.68;11.15;;;;;;;-139.48;100.00;61774.03;4975710;28;20194;-70
2021/10/08 07:47:50;;;;;;;16.58;12.35;;;;;;;-139.48;100.00;61774.03;4961069;28;20110;-69
2021/10/08 07:50:34;;;;;;;16.27;11.25;;;;;;;-139.48;100.00;61774.03;4974578;28;20057;-70
2021/10/08 07:53:17;;;;;;;16.33;10.77;;;;;;;-139.48;100.00;61774.03;4975615;28;20423;-70
2021/10/08 07:56:02;;;;;;;16.00;10.98;;;;;;;-139.48;100.00;61774.03;4974705;28;20089;-70
2021/10/08 07:58:46;;;;;;;16.48;9.93;;;;;;;-139.48;100.00;61774.03;4961004;28;20555;-70
2021/10/08 08:01:30;;;;;;;19.13;11.05;;;;;;;-139.48;100.00;61774.03;4974444;28;20062;-70
2021/10/08 08:04:14;;;;;;;15.23;10.70;;;;;;;-139.48;100.00;61774.03;4961064;28;20053;-70
2021/10/08 08:06:58;;;;;;;16.50;11.55;;;;;;;-139.48;100.00;61774.03;4974557;28;20050;-70
2021/10/08 08:09:41;;;;;;;20.35;10.23;;;;;;;-139.48;100.00;61774.03;4974382;28;20046;-70
2021/10/08 08:12:25;;;;;;;;;;;;;;;-139.48;100.00;61774.03;4960984;28;20415;-70
2021/10/08 08:15:10;;;;;;;18.73;9.57;;;;;;;-139.48;100.00;61774.03;4974387;28;19964;-70
2021/10/08 08:17:54;;;;;;;13.05;10.38;;;;;;;-139.48;100.00;61774.03;4974199;28;20049;-70
2021/10/08 08:20:38;;;;;;;19.15;10.73;;;;;;;-139.48;100.00;61774.03;4974034;28;20077;-70
2021/10/08 08:23:22;;;;;;;13.90;10.05;;;;;;;-139.48;100.00;61774.03;4973975;28;20050;-71
2021/10/08 08:26:06;;;;;;;12.23;9.30;;;;;;;-139.48;100.00;61774.03;4974272;28;20085;-70
2021/10/08 08:28:49;;;;;;;13.18;10.05;;;;;;;-139.48;100.00;61774.03;4975173;28;20042;-71
2021/10/08 08:31:33;;;;;;;15.63;10.30;;;;;;;-139.48;100.00;61774.03;4974094;28;20049;-70
2021/10/08 08:34:17;;;;;;;14.60;8.93;;;;;;;-139.48;100.00;61774.03;4973906;28;20138;-70
2021/10/08 08:37:02;;;;;;;14.57;10.13;;;;;;;-139.48;100.00;61774.03;4973694;28;20050;-70
2021/10/08 08:39:46;;;;;;;14.38;9.55;;;;;;;-139.48;100.00;61774.03;4960142;28;20125;-71
2021/10/08 08:42:29;;;;;;;13.45;8.77;;;;;;;-139.48;100.00;61774.03;4974897;28;20073;-71
2021/10/08 08:45:13;;;;;;;;;;;;;;;-139.48;100.00;61774.03;4960386;28;20129;-70
2021/10/08 08:48:06;;;;;;;13.63;8.63;;;;;;;-139.48;100.00;61774.03;4973942;28;20377;-70
2021/10/08 08:50:51;;;;;;;10.00;7.70;;;;;;;-139.48;100.00;61774.03;4973487;28;20253;-70
2021/10/08 08:53:35;;;;;;;8.68;6.65;;;;;;;-139.48;100.00;61774.03;4974378;28;20131;-70
2021/10/08 08:56:20;;;;;;;10.23;7.20;;;;;;;-139.48;100.00;61774.03;4973670;28;20096;-70
2021/10/08 08:59:06;;;;;;;9.07;6.47;;;;;;;-139.48;100.00;61774.03;4973522;28;20132;-70
2021/10/08 09:02:04;;;;;;;10.63;6.65;;;;;;;-139.48;100.00;61774.03;4959728;28;20105;-71
2021/10/08 09:04:48;;;;;;;10.40;7.32;;;;;;;-139.48;100.00;61774.03;4959932;28;20514;-71
2021/10/08 09:07:34;;;;;;;10.43;6.60;;;;;;;-139.48;100.00;61774.03;4959779;28;20057;-71
2021/10/08 09:10:20;;;;;;;8.18;6.65;;;;;;;-139.48;100.00;61774.03;4974503;28;20050;-70
2021/10/08 09:13:05;;;;;;;11.35;6.35;;;;;;;-139.48;100.00;61774.03;4973059;28;20050;-71
2021/10/08 09:15:53;;;;;;;6.68;5.57;;;;;;;-139.48;100.00;61774.03;4973117;28;20126;-70
2021/10/08 09:18:41;;;;;;;8.90;5.47;;;;;;;-139.48;100.00;61774.03;4973001;28;20137;-71
2021/10/08 09:21:32;;;;;;;7.40;5.05;;;;;;;-139.48;100.00;61774.03;4972952;28;20559;-71
2021/10/08 09:24:22;;;;;;;7.90;5.50;;;;;;;-139.48;100.00;61774.03;4973763;28;20101;-71
2021/10/08 09:27:10;;;;;;;7.00;5.38;;;;;;;-139.48;100.00;61774.03;4973059;28;20054;-70
2021/10/08 09:29:55;;;;;;;7.15;5.10;;;;;;;-139.48;100.00;61774.03;4972815;28;20049;-71
2021/10/08 09:32:50;;;;;;;6.47;5.13;;;;;;;-139.48;100.00;61774.03;4959169;28;20050;-72
2021/10/08 09:35:34;;;;;;;7.15;5.07;;;;;;;-139.48;100.00;61774.03;4959161;28;20559;-71
2021/10/08 09:38:19;;;;;;;7.30;5.00;;;;;;;-139.48;100.00;61774.03;4972755;28;20422;-72
2021/10/08 09:41:04;;;;;;;7.47;4.95;;;;;;;-139.48;100.00;61774.03;4973041;28;20060;-71
2021/10/08 09:43:48;;;;;;;6.05;4.85;;;;;;;-139.48;100.00;61774.03;4959252;28;20050;-71
2021/10/08 09:46:32;;;;;;;8.20;5.50;;;;;;;-139.48;100.00;61774.03;4972645;28;20073;-72
2021/10/08 09:49:22;;;;;;;6.05;5.03;;;;;;;-139.48;100.00;61774.03;4959302;28;20046;-72
2021/10/08 09:52:19;;;;;;;7.13;5.35;;;;;;;-139.48;100.00;61774.03;4972895;28;20412;-71
2021/10/08 09:55:06;;;;;;;7.07;4.93;;;;;;;-139.48;100.00;61774.03;4973763;28;20142;-71
2021/10/08 09:57:56;;;;;;;7.68;4.90;;;;;;;-139.48;100.00;61774.03;4972600;28;20113;-72
2021/10/08 10:01:01;;;;;;;6.10;4.93;;;;;;;-139.48;100.00;61774.03;4974236;28;20053;-71
2021/10/08 10:03:51;;;;;;;7.82;5.28;;;;;;;-139.48;100.00;61774.03;4972624;28;20182;-71
2021/10/08 10:06:42;;;;;;;11.05;5.00;;;;;;;-139.48;100.00;61774.03;4974029;28;20094;-72
2021/10/08 10:09:26;;;;;;;11.70;5.80;;;;;;;-139.48;100.00;61774.03;4972578;28;20049;-70
2021/10/08 10:12:10;;;;;;;8.60;5.35;;;;;;;-139.48;100.00;61774.03;4972726;28;20543;-71
2021/10/08 10:14:54;;;;;;;6.85;5.57;;;;;;;-139.48;100.00;61774.03;4972235;28;20057;-71
2021/10/08 10:17:38;;;;;;;6.78;5.43;;;;;;;-139.48;100.00;61774.03;4972624;28;20050;-72
2021/10/08 10:20:23;;;;;;;8.25;5.55;;;;;;;-139.48;100.00;61774.03;4972682;28;20125;-72
2021/10/08 10:23:08;;;;;;;6.40;4.93;;;;;;;-139.48;100.00;61774.03;4972185;28;20189;-72
2021/10/08 10:25:52;;;;;;;8.20;4.95;;;;;;;-139.48;100.00;61774.03;4973407;28;20464;-71
2021/10/08 10:28:37;;;;;;;6.82;4.35;;;;;;;-139.48;100.00;61774.03;4972810;28;20430;-71
2021/10/08 10:31:21;;;;;;;5.55;4.35;;;;;;;-139.48;100.00;61774.03;4972516;28;20117;-71
2021/10/08 10:34:05;;;;;;;5.72;4.03;;;;;;;-139.48;100.00;61774.03;4972446;28;20130;-71
2021/10/08 10:36:49;;;;;;;6.07;4.22;;;;;;;-139.48;100.00;61774.03;4972835;28;20419;-71
2021/10/08 10:39:33;;;;;;;5.43;4.47;;;;;;;-139.48;100.00;61774.03;4959125;28;20117;-69
2021/10/08 10:42:17;;;;;;;7.15;4.28;;;;;;;-139.48;100.00;61774.03;4972557;28;20587;-71
2021/10/08 10:45:07;;;;;;;8.15;4.57;;;;;;;-139.48;100.00;61774.03;4973535;28;20093;-71
2021/10/08 10:48:11;;;;;;;7.72;4.85;;;;;;;-139.48;100.00;61774.03;4972580;28;20069;-71
2021/10/08 10:51:14;;;;;;;6.68;5.50;;;;;;;-139.48;100.00;61774.03;4975922;28;20077;-71
2021/10/08 10:53:58;;;;;;;9.65;6.10;;;;;;;-139.48;100.00;61774.03;4976118;28;20069;-71
2021/10/08 10:56:42;;;;;;;;;;;;;;;-139.48;100.00;61774.03;4976684;28;20097;-71
2021/10/08 10:59:31;;;;;;;10.35;5.20;;;;;;;-139.48;100.00;61774.03;4962717;28;20338;-71
2021/10/08 11:02:22;;;;;;;6.85;5.30;;;;;;;-139.48;100.00;61774.03;4977540;28;20069;-71
2021/10/08 11:05:21;;;;;;;6.35;5.53;;;;;;;-139.48;100.00;61774.03;4977372;28;20153;-71
2021/10/08 11:08:16;;;;;;;7.43;5.00;;;;;;;-139.48;100.00;61774.03;4975943;28;20141;-71
2021/10/08 11:10:59;;;;;;;6.55;5.28;;;;;;;-139.48;100.00;61774.03;4975901;28;20400;-71
2021/10/08 11:13:45;;;;;;;9.85;5.45;;;;;;;-139.48;100.00;61774.03;4976790;28;20134;-69
2021/10/08 11:16:30;;;;;;;8.45;5.60;;;;;;;-139.48;100.00;61774.03;4976463;28;20424;-71
2021/10/08 11:19:39;;;;;;;8.07;5.88;;;;;;;-139.48;100.00;61774.03;4975252;28;20085;-71
2021/10/08 11:22:43;;;;;;;9.10;6.22;;;;;;;-139.48;100.00;61774.03;4975313;28;20046;-71
2021/10/08 11:25:29;;;;;;;8.20;5.30;;;;;;;-139.48;100.00;61774.03;4961976;28;20193;-71
2021/10/08 11:28:16;;;;;;;11.40;5.95;;;;;;;-139.48;100.00;61774.03;4961857;28;20058;-71
2021/10/08 11:31:01;;;;;;;10.55;6.05;;;;;;;-139.48;100.00;61774.03;4962065;28;20053;-71
2021/10/08 11:33:48;;;;;;;10.40;4.93;;;;;;;-139.48;100.00;61774.03;4975013;28;20053;-71
2021/10/08 11:36:33;;;;;;;7.50;4.97;;;;;;;-139.48;100.00;61774.03;4975337;28;20042;-71
2021/10/08 11:39:18;;;;;;;13.35;5.82;;;;;;;-139.48;100.00;61774.03;4975058;28;20234;-71
2021/10/08 11:42:09;;;;;;;12.52;5.10;;;;;;;-139.48;100.00;61774.03;4975298;28;20049;-71
2021/10/08 11:45:04;;;;;;;10.30;5.30;;;;;;;-139.48;100.00;61774.03;4975088;28;20054;-71
2021/10/08 11:47:56;;;;;;;9.32;5.78;;;;;;;-139.48;100.00;61774.03;4976022;28;20110;-70
2021/10/08 11:51:13;;;;;;;7.90;5.90;;;;;;;-139.48;100.00;61774.03;4974990;28;20102;-70
2021/10/08 11:53:52;;;;;;;7.97;5.72;;;;;;;-139.48;100.00;61774.03;4974957;28;20050;-70
2021/10/08 11:56:36;;;;;;;9.77;6.82;;;;;;;-139.48;100.00;61774.03;4974704;28;20089;-71
2021/10/08 11:59:20;;;;;;;9.48;6.75;;;;;;;-139.48;100.00;61774.03;4975991;28;20058;-71
2021/10/08 12:02:14;;;;;;;10.45;6.97;;;;;;;-139.48;100.00;61774.03;4976002;28;20415;-71
2021/10/08 12:05:00;;;;;;;10.52;8.40;;;;;;;-139.48;100.00;61774.03;4974635;28;20134;-70
2021/10/08 12:07:57;;;;;;;10.07;8.05;;;;;;;-139.48;100.00;61774.03;4974350;28;20148;-71
2021/10/08 12:11:16;;;;;;;9.85;7.95;;;;;;;-139.48;100.00;61774.03;4976073;28;20057;-71
2021/10/08 12:14:05;;;;;;;14.15;7.93;;;;;;;-139.48;100.00;61774.03;4953034;28;20154;-70
2021/10/08 12:16:49;;;;;;;9.77;7.03;;;;;;;-139.48;100.00;61774.03;4961068;28;20130;-71
2021/10/08 12:19:33;;;;;;;10.30;7.22;;;;;;;-139.48;100.00;61774.03;4974504;28;20049;-70
2021/10/08 12:22:22;;;;;;;9.55;7.03;;;;;;;-139.48;100.00;61774.03;4975451;28;20470;-71